LTBL/IGI METAR and TAF weather

Enter ICAO airport designator
Station Type Date Time Source
LTBL METAR 2018/12/09 05:50 UTC NOAA

LTBL 090550Z 11010KT 9999 SCT040 BKN090 09/M00 Q1013 NOSIG RMK RWY17 13011KT 090V170


Station Type Date Time Source
LTBL Decoded METAR 2018/12/09 05:50 UTC NOAA

Izmir / Cigli, Turkey (LTBL) 38-30N 027-01E 5M
Dec 09, 2018 - 12:50 AM EST / 2018.12.09 0550 UTC
Wind: from the ESE (110 degrees) at 12 MPH (10 KT):0
Visibility: greater than 7 mile(s):0
Sky conditions: mostly cloudy
Temperature: 48 F (9 C)
Dew Point: 32 F (0 C)
Relative Humidity: 53%
Pressure (altimeter): 29.91 in. Hg (1013 hPa)
ob: LTBL 090550Z 11010KT 9999 SCT040 BKN090 09/M00 Q1013 NOSIG RMK RWY17 13011KT 090V170
cycle: 6

Station Type Date Time Source
LTBL TAF UTC NOAA

Error!


Example: see airport list